Time;durP1;ratioP1;P1;durP2;ratioP2;P2;SDS_P1;SDS_P2;PMS_P1;PMS_P2;Temp;Humidity;BMP_temperature;BMP_pressure;BME280_temperature;BME280_humidity;BME280_pressure;Samples;Min_cycle;Max_cycle;Signal;HPM_P1;HPM_P2
2021/08/09 00:01:06;;;;;;;;;;;;;;;;;;3540258;40;20064;-73
2021/08/09 00:03:32;;;;;;;;;;;;;;;;;;3540263;40;20262;-72
2021/08/09 00:05:58;;;;;;;;;;;;;;;;;;3538696;40;20022;-73
2021/08/09 00:08:24;;;;;;;;;;;;;;;;;;3538824;40;19937;-73
2021/08/09 00:10:50;;;;;;;;;;;;;;;;;;3530543;40;19931;-73
2021/08/09 00:13:16;;;;;;;;;;;;;;;;;;3538917;40;20260;-73
2021/08/09 00:15:42;;;;;;;;;;;;;;;;;;3541349;40;19949;-72
2021/08/09 00:18:07;;;;;;;;;;;;;;;;;;3560260;40;19937;-73
2021/08/09 00:20:33;;;;;;;;;;;;;;;;;;3553067;40;19953;-72
2021/08/09 00:22:59;;;;;;;;;;;;;;;;;;3560098;40;19933;-73
2021/08/09 00:25:25;;;;;;;;;;;;;;;;;;3560037;40;19933;-73
2021/08/09 00:27:51;;;;;;;;;;;;;;;;;;3576542;40;19939;-73
2021/08/09 00:30:17;;;;;;;;;;;;;;;;;;3581603;40;19932;-74
2021/08/09 00:32:43;;;;;;;;;;;;;;;;;;3581406;40;19947;-73
2021/08/09 00:35:09;;;;;;;;;;;;;;;;;;3581722;40;19929;-72
2021/08/09 00:37:35;;;;;;;;;;;;;;;;;;3580928;40;19932;-72
2021/08/09 00:40:01;;;;;;;;;;;;;;;;;;3578775;40;20185;-71
2021/08/09 00:42:27;;;;;;;;;;;;;;;;;;3573118;40;19940;-71
2021/08/09 00:44:53;;;;;;;;;;;;;;;;;;3573288;40;19945;-72
2021/08/09 00:47:18;;;;;;;;;;;;;;;;;;3576381;40;19933;-73
2021/08/09 00:49:44;;;;;;;;;;;;;;;;;;3571728;40;19940;-72
2021/08/09 00:52:10;;;;;;;;;;;;;;;;;;3581208;40;19972;-73
2021/08/09 00:54:36;;;;;;;;;;;;;;;;;;3575531;40;20287;-73
2021/08/09 00:57:02;;;;;;;;;;;;;;;;;;3580362;40;19932;-72
2021/08/09 00:59:28;;;;;;;;;;;;;;;;;;3581625;40;19933;-75
2021/08/09 01:01:54;;;;;;;;;;;;;;;;;;3577622;40;20263;-72
2021/08/09 01:04:20;;;;;;;;;;;;;;;;;;3574314;40;19944;-71
2021/08/09 01:06:46;;;;;;;;;;;;;;;;;;3580201;40;19932;-73
2021/08/09 01:09:12;;;;;;;;;;;;;;;;;;3578565;40;19933;-73
2021/08/09 01:11:38;;;;;;;;;;;;;;;;;;3581186;40;19972;-73
2021/08/09 01:14:04;;;;;;;;;;;;;;;;;;3579703;40;19940;-72
2021/08/09 01:16:30;;;;;;;;;;;;;;;;;;3577159;40;19937;-72
2021/08/09 01:18:56;;;;;;;;;;;;;;;;;;3564540;40;19933;-74
2021/08/09 01:21:22;;;;;;;;;;;;;;;;;;3561115;40;19945;-72
2021/08/09 01:23:48;;;;;;;;;;;;;;;;;;3571340;40;19933;-73
2021/08/09 01:26:13;;;;;;;;;;;;;;;;;;3571204;40;19933;-72
2021/08/09 01:28:39;;;;;;;;;;;;;;;;;;3571055;40;20188;-73
2021/08/09 01:31:05;;;;;;;;;;;;;;;;;;3570823;40;19933;-73
2021/08/09 01:33:31;;;;;;;;;;;;;;;;;;3561853;40;20286;-73
2021/08/09 01:35:57;;;;;;;;;;;;;;;;;;3570178;40;19938;-72
2021/08/09 01:38:23;;;;;;;;;;;;;;;;;;3561395;40;19933;-72
2021/08/09 01:40:49;;;;;;;;;;;;;;;;;;3570969;40;19941;-77
2021/08/09 01:43:15;;;;;;;;;;;;;;;;;;3559775;40;19941;-73
2021/08/09 01:45:41;;;;;;;;;;;;;;;;;;3564624;40;19934;-73
2021/08/09 01:48:07;;;;;;;;;;;;;;;;;;3563336;40;19933;-73
2021/08/09 01:50:32;;;;;;;;;;;;;;;;;;3561629;40;19933;-72
2021/08/09 01:52:58;;;;;;;;;;;;;;;;;;3560592;40;19933;-73
2021/08/09 01:55:24;;;;;;;;;;;;;;;;;;3569120;40;19934;-72
2021/08/09 01:57:50;;;;;;;;;;;;;;;;;;3567530;40;19933;-73
2021/08/09 02:00:16;;;;;;;;;;;;;;;;;;3570640;40;20279;-72
2021/08/09 02:02:42;;;;;;;;;;;;;;;;;;3569794;40;19933;-72
2021/08/09 02:05:08;;;;;;;;;;;;;;;;;;3564622;40;19933;-73
2021/08/09 02:07:34;;;;;;;;;;;;;;;;;;3570968;40;20018;-73
2021/08/09 02:10:00;;;;;;;;;;;;;;;;;;3570631;40;19941;-73
2021/08/09 02:12:26;;;;;;;;;;;;;;;;;;3570631;40;19929;-72
2021/08/09 02:14:52;;;;;;;;;;;;;;;;;;3565823;40;19929;-74
2021/08/09 02:17:17;;;;;;;;;;;;;;;;;;3567917;40;19956;-73
2021/08/09 02:19:43;;;;;;;;;;;;;;;;;;3563517;40;19936;-74
2021/08/09 02:22:09;;;;;;;;;;;;;;;;;;3570641;40;19936;-72
2021/08/09 02:24:35;;;;;;;;;;;;;;;;;;3570671;40;19936;-73
2021/08/09 02:27:01;;;;;;;;;;;;;;;;;;3570955;40;19936;-73
2021/08/09 02:29:27;;;;;;;;;;;;;;;;;;3554634;40;20007;-74
2021/08/09 02:31:53;;;;;;;;;;;;;;;;;;3559680;40;19929;-73
2021/08/09 02:34:19;;;;;;;;;;;;;;;;;;3567595;40;19933;-73
2021/08/09 02:36:45;;;;;;;;;;;;;;;;;;3564745;40;20018;-73
2021/08/09 02:39:11;;;;;;;;;;;;;;;;;;3570709;40;19939;-78
2021/08/09 02:41:37;;;;;;;;;;;;;;;;;;3563906;40;19941;-73
2021/08/09 02:44:02;;;;;;;;;;;;;;;;;;3561951;40;19929;-74
2021/08/09 02:46:28;;;;;;;;;;;;;;;;;;3559399;40;20186;-75
2021/08/09 02:48:54;;;;;;;;;;;;;;;;;;3564266;40;19935;-73
2021/08/09 02:51:20;;;;;;;;;;;;;;;;;;3548878;40;19926;-74
2021/08/09 02:53:46;;;;;;;;;;;;;;;;;;3538097;40;20281;-75
2021/08/09 02:56:12;;;;;;;;;;;;;;;;;;3548936;40;19926;-72
2021/08/09 02:58:38;;;;;;;;;;;;;;;;;;3547864;40;19930;-73
2021/08/09 03:01:04;;;;;;;;;;;;;;;;;;3530931;40;20320;-74
2021/08/09 03:03:30;;;;;;;;;;;;;;;;;;3547965;40;19936;-73
2021/08/09 03:05:56;;;;;;;;;;;;;;;;;;3547799;40;19962;-73
2021/08/09 03:08:22;;;;;;;;;;;;;;;;;;3540643;40;19974;-72
2021/08/09 03:10:48;;;;;;;;;;;;;;;;;;3548770;40;19980;-73
2021/08/09 03:13:14;;;;;;;;;;;;;;;;;;3548795;40;20032;-73
2021/08/09 03:15:42;;;;;;;;;;;;;;;;;;3549032;40;19938;-73
2021/08/09 03:18:08;;;;;;;;;;;;;;;;;;3554303;40;20334;-76
2021/08/09 03:20:34;;;;;;;;;;;;;;;;;;3552978;40;19929;-74
2021/08/09 03:23:00;;;;;;;;;;;;;;;;;;3563092;40;19945;-73
2021/08/09 03:25:25;;;;;;;;;;;;;;;;;;3568883;40;19941;-74
2021/08/09 03:27:51;;;;;;;;;;;;;;;;;;3569969;40;20265;-73
2021/08/09 03:30:17;;;;;;;;;;;;;;;;;;3563741;40;19929;-73
2021/08/09 03:32:43;;;;;;;;;;;;;;;;;;3562504;40;19929;-74
2021/08/09 03:35:09;;;;;;;;;;;;;;;;;;3558788;40;19929;-73
2021/08/09 03:37:35;;;;;;;;;;;;;;;;;;3567240;40;19929;-72
2021/08/09 03:40:01;;;;;;;;;;;;;;;;;;3569913;40;20015;-76
2021/08/09 03:42:27;;;;;;;;;;;;;;;;;;3569918;40;20262;-74
2021/08/09 03:44:53;;;;;;;;;;;;;;;;;;3570173;40;19941;-74
2021/08/09 03:47:19;;;;;;;;;;;;;;;;;;3568987;40;20398;-73
2021/08/09 03:49:45;;;;;;;;;;;;;;;;;;3570183;40;19941;-72
2021/08/09 03:52:11;;;;;;;;;;;;;;;;;;3571040;40;19945;-74
2021/08/09 03:54:37;;;;;;;;;;;;;;;;;;3571156;40;19941;-73
2021/08/09 03:57:03;;;;;;;;;;;;;;;;;;3571228;40;19942;-74
2021/08/09 03:59:29;;;;;;;;;;;;;;;;;;3571238;40;19936;-74
2021/08/09 04:01:54;;;;;;;;;;;;;;;;;;3571345;40;20263;-73
2021/08/09 04:04:20;;;;;;;;;;;;;;;;;;3571498;40;19973;-73
2021/08/09 04:06:46;;;;;;;;;;;;;;;;;;3568452;40;19929;-74
2021/08/09 04:09:12;;;;;;;;;;;;;;;;;;3567265;40;19936;-73
2021/08/09 04:11:38;;;;;;;;;;;;;;;;;;3571221;40;19973;-73
2021/08/09 04:14:04;;;;;;;;;;;;;;;;;;3564112;40;19929;-73
2021/08/09 04:16:30;;;;;;;;;;;;;;;;;;3567736;40;20387;-72
2021/08/09 04:18:56;;;;;;;;;;;;;;;;;;3561700;40;19929;-72
2021/08/09 04:21:22;;;;;;;;;;;;;;;;;;3561816;40;19929;-73
2021/08/09 04:23:48;;;;;;;;;;;;;;;;;;3570960;40;19936;-74
2021/08/09 04:26:15;;;;;;;;;;;;;;;;;;3571123;40;19929;-73
2021/08/09 04:28:41;;;;;;;;;;;;;;;;;;3561556;40;19929;-73
2021/08/09 04:31:07;;;;;;;;;;;;;;;;;;3570892;40;19969;-73
2021/08/09 04:33:33;;;;;;;;;;;;;;;;;;3561493;40;19936;-73
2021/08/09 04:35:59;;;;;;;;;;;;;;;;;;3571050;40;19933;-73
2021/08/09 04:38:24;;;;;;;;;;;;;;;;;;3558216;40;19956;-73
2021/08/09 04:40:50;;;;;;;;;;;;;;;;;;3558567;40;19929;-73
2021/08/09 04:43:16;;;;;;;;;;;;;;;;;;3561399;40;19930;-74
2021/08/09 04:45:42;;;;;;;;;;;;;;;;;;3555903;40;20258;-72
2021/08/09 04:48:08;;;;;;;;;;;;;;;;;;3569665;40;19929;-74
2021/08/09 04:50:34;;;;;;;;;;;;;;;;;;3561623;40;19932;-73
2021/08/09 04:53:00;;;;;;;;;;;;;;;;;;3570779;40;20194;-74
2021/08/09 04:55:26;;;;;;;;;;;;;;;;;;3558094;40;19929;-73
2021/08/09 04:57:52;;;;;;;;;;;;;;;;;;3561136;40;19930;-73
2021/08/09 05:00:18;;;;;;;;;;;;;;;;;;3570610;40;19936;-74
2021/08/09 05:02:44;;;;;;;;;;;;;;;;;;3568775;40;19929;-77
2021/08/09 05:05:10;;;;;;;;;;;;;;;;;;3558378;40;20376;-73
2021/08/09 05:07:36;;;;;;;;;;;;;;;;;;3566019;40;19929;-74
2021/08/09 05:10:01;;;;;;;;;;;;;;;;;;3556190;40;19933;-73
2021/08/09 05:12:27;;;;;;;;;;;;;;;;;;3551902;40;20267;-72
2021/08/09 05:14:53;;;;;;;;;;;;;;;;;;3560714;40;19933;-72
2021/08/09 05:17:19;;;;;;;;;;;;;;;;;;3562193;40;20164;-72
2021/08/09 05:19:45;;;;;;;;;;;;;;;;;;3570818;40;19936;-73
2021/08/09 05:22:11;;;;;;;;;;;;;;;;;;3570837;40;19956;-73
2021/08/09 05:24:37;;;;;;;;;;;;;;;;;;3570757;40;19929;-72
2021/08/09 05:27:03;;;;;;;;;;;;;;;;;;3564844;40;19930;-73
2021/08/09 05:29:29;;;;;;;;;;;;;;;;;;3569897;40;19929;-72
2021/08/09 05:31:55;;;;;;;;;;;;;;;;;;3570830;40;19968;-72
2021/08/09 05:34:21;;;;;;;;;;;;;;;;;;3569636;40;20286;-73
2021/08/09 05:36:47;;;;;;;;;;;;;;;;;;3555672;40;19929;-72
2021/08/09 05:39:13;;;;;;;;;;;;;;;;;;3554378;40;19936;-73
2021/08/09 05:41:39;;;;;;;;;;;;;;;;;;3558462;40;19960;-72
2021/08/09 05:44:05;;;;;;;;;;;;;;;;;;3560754;40;19937;-73
2021/08/09 05:46:30;;;;;;;;;;;;;;;;;;3569906;40;19929;-74
2021/08/09 05:48:56;;;;;;;;;;;;;;;;;;3556677;40;19930;-75
2021/08/09 05:51:22;;;;;;;;;;;;;;;;;;3568699;40;19929;-74
2021/08/09 05:53:48;;;;;;;;;;;;;;;;;;3570700;40;20190;-75
2021/08/09 05:56:14;;;;;;;;;;;;;;;;;;3561366;40;20203;-73
2021/08/09 05:58:40;;;;;;;;;;;;;;;;;;3570481;40;19940;-78
2021/08/09 06:01:06;;;;;;;;;;;;;;;;;;3555672;40;20007;-73
2021/08/09 06:03:32;;;;;;;;;;;;;;;;;;3568943;40;19936;-74
2021/08/09 06:05:58;;;;;;;;;;;;;;;;;;3570373;40;19929;-74
2021/08/09 06:08:24;;;;;;;;;;;;;;;;;;3559597;40;19936;-73
2021/08/09 06:10:50;;;;;;;;;;;;;;;;;;3560726;40;20271;-75
2021/08/09 06:13:16;;;;;;;;;;;;;;;;;;3570499;40;19937;-76
2021/08/09 06:15:41;;;;;;;;;;;;;;;;;;3560750;40;19929;-76
2021/08/09 06:18:07;;;;;;;;;;;;;;;;;;3570305;40;20372;-73
2021/08/09 06:20:33;;;;;;;;;;;;;;;;;;3559634;40;19941;-74
2021/08/09 06:22:59;;;;;;;;;;;;;;;;;;3559902;40;19936;-76
2021/08/09 06:25:26;;;;;;;;;;;;;;;;;;3570504;40;19937;-73
2021/08/09 06:27:52;;;;;;;;;;;;;;;;;;3563423;40;19961;-73
2021/08/09 06:30:18;;;;;;;;;;;;;;;;;;3570499;40;19936;-72
2021/08/09 06:32:44;;;;;;;;;;;;;;;;;;3570155;40;20289;-75
2021/08/09 06:35:10;;;;;;;;;;;;;;;;;;3570493;40;19936;-73
2021/08/09 06:37:36;;;;;;;;;;;;;;;;;;3570299;40;19961;-73
2021/08/09 06:40:01;;;;;;;;;;;;;;;;;;3570371;40;19937;-74
2021/08/09 06:42:28;;;;;;;;;;;;;;;;;;3570351;40;19929;-72
2021/08/09 06:44:54;;;;;;;;;;;;;;;;;;3559070;40;19944;-73
2021/08/09 06:47:20;;;;;;;;;;;;;;;;;;3560915;40;20191;-73
2021/08/09 06:49:45;;;;;;;;;;;;;;;;;;3554014;40;19969;-73
2021/08/09 06:52:11;;;;;;;;;;;;;;;;;;3565835;40;19929;-71
2021/08/09 06:54:37;;;;;;;;;;;;;;;;;;3560775;40;20275;-72
2021/08/09 06:57:03;;;;;;;;;;;;;;;;;;3567066;40;19937;-72
2021/08/09 06:59:29;;;;;;;;;;;;;;;;;;3566833;40;19933;-72
2021/08/09 07:01:55;;;;;;;;;;;;;;;;;;3570001;40;19932;-71
2021/08/09 07:04:21;;;;;;;;;;;;;;;;;;3560830;40;19925;-71
2021/08/09 07:06:47;;;;;;;;;;;;;;;;;;3569892;40;19933;-72
2021/08/09 07:09:13;;;;;;;;;;;;;;;;;;3570020;40;19929;-75
2021/08/09 07:11:39;;;;;;;;;;;;;;;;;;3559192;40;20008;-71
2021/08/09 07:14:05;;;;;;;;;;;;;;;;;;3559986;40;19926;-72
2021/08/09 07:16:31;;;;;;;;;;;;;;;;;;3562903;40;19929;-72
2021/08/09 07:18:57;;;;;;;;;;;;;;;;;;3578906;40;20256;-75
2021/08/09 07:21:24;;;;;;;;;;;;;;;;;;3576558;40;19973;-71
2021/08/09 07:23:50;;;;;;;;;;;;;;;;;;3576672;40;20260;-72
2021/08/09 07:26:16;;;;;;;;;;;;;;;;;;3580365;40;20017;-73
2021/08/09 07:28:42;;;;;;;;;;;;;;;;;;3575671;40;20011;-76
2021/08/09 07:31:08;;;;;;;;;;;;;;;;;;3571462;40;19933;-74
2021/08/09 07:33:34;;;;;;;;;;;;;;;;;;3576196;40;19929;-74
2021/08/09 07:36:01;;;;;;;;;;;;;;;;;;3574299;40;20019;-74
2021/08/09 07:38:26;;;;;;;;;;;;;;;;;;3581270;40;19929;-73
2021/08/09 07:40:52;;;;;;;;;;;;;;;;;;3578365;40;19936;-75
2021/08/09 07:43:18;;;;;;;;;;;;;;;;;;3573068;40;19937;-73
2021/08/09 07:45:44;;;;;;;;;;;;;;;;;;3580103;40;19933;-74
2021/08/09 07:48:10;;;;;;;;;;;;;;;;;;3579406;40;19973;-74
2021/08/09 07:50:38;;;;;;;;;;;;;;;;;;3571514;40;19932;-71
2021/08/09 07:53:04;;;;;;;;;;;;;;;;;;3579260;40;19936;-73
2021/08/09 07:55:30;;;;;;;;;;;;;;;;;;3581484;40;20347;-77
2021/08/09 07:57:56;;;;;;;;;;;;;;;;;;3580055;40;19933;-74
2021/08/09 08:00:22;;;;;;;;;;;;;;;;;;3581106;40;20018;-74
2021/08/09 08:02:50;;;;;;;;;;;;;;;;;;3579567;40;20371;-74
2021/08/09 08:05:15;;;;;;;;;;;;;;;;;;3580960;40;19935;-74
2021/08/09 08:07:41;;;;;;;;;;;;;;;;;;3575710;40;19937;-74
2021/08/09 08:10:07;;;;;;;;;;;;;;;;;;3573032;40;20268;-75
2021/08/09 08:12:33;;;;;;;;;;;;;;;;;;3580371;40;19933;-74
2021/08/09 08:14:59;;;;;;;;;;;;;;;;;;3581223;40;20293;-74
2021/08/09 08:17:25;;;;;;;;;;;;;;;;;;3568047;40;20271;-74
2021/08/09 08:19:51;;;;;;;;;;;;;;;;;;3561797;40;19929;-74
2021/08/09 08:22:17;;;;;;;;;;;;;;;;;;3561463;40;19929;-74
2021/08/09 08:24:43;;;;;;;;;;;;;;;;;;3570965;40;19929;-74
2021/08/09 08:27:09;;;;;;;;;;;;;;;;;;3570851;40;20409;-74
2021/08/09 08:29:35;;;;;;;;;;;;;;;;;;3571213;40;19929;-74
2021/08/09 08:32:00;;;;;;;;;;;;;;;;;;3570833;40;20010;-74
2021/08/09 08:34:26;;;;;;;;;;;;;;;;;;3570883;40;20262;-74
2021/08/09 08:36:52;;;;;;;;;;;;;;;;;;3553755;40;19930;-73
2021/08/09 08:39:18;;;;;;;;;;;;;;;;;;3551644;40;19938;-75
2021/08/09 08:41:44;;;;;;;;;;;;;;;;;;3561376;40;19965;-76
2021/08/09 08:44:10;;;;;;;;;;;;;;;;;;3551698;40;20035;-75
2021/08/09 08:46:36;;;;;;;;;;;;;;;;;;3563672;40;20313;-74
2021/08/09 08:49:02;;;;;;;;;;;;;;;;;;3561678;40;19933;-74
2021/08/09 08:51:28;;;;;;;;;;;;;;;;;;3571228;40;19940;-79
2021/08/09 08:53:54;;;;;;;;;;;;;;;;;;3571509;40;19932;-74
2021/08/09 08:56:21;;;;;;;;;;;;;;;;;;3561729;40;19932;-74
2021/08/09 08:58:47;;;;;;;;;;;;;;;;;;3570964;40;19933;-72
2021/08/09 09:01:14;;;;;;;;;;;;;;;;;;3570983;40;19929;-74
2021/08/09 09:03:40;;;;;;;;;;;;;;;;;;3571009;40;19929;-71
2021/08/09 09:06:06;;;;;;;;;;;;;;;;;;3570984;40;20018;-71
2021/08/09 09:08:31;;;;;;;;;;;;;;;;;;3571205;40;19939;-72
2021/08/09 09:10:57;;;;;;;;;;;;;;;;;;3570819;40;20215;-72
2021/08/09 09:13:24;;;;;;;;;;;;;;;;;;3561416;40;19936;-72
2021/08/09 09:15:50;;;;;;;;;;;;;;;;;;3570802;40;19932;-73
2021/08/09 09:18:16;;;;;;;;;;;;;;;;;;3571722;40;19929;-72
2021/08/09 09:20:42;;;;;;;;;;;;;;;;;;3561471;40;20190;-72
2021/08/09 09:23:07;;;;;;;;;;;;;;;;;;3571130;40;20219;-72
2021/08/09 09:25:33;;;;;;;;;;;;;;;;;;3570903;40;20164;-73
2021/08/09 09:27:59;;;;;;;;;;;;;;;;;;3571022;40;19983;-73
2021/08/09 09:30:25;;;;;;;;;;;;;;;;;;3570683;40;19933;-72
2021/08/09 09:32:51;;;;;;;;;;;;;;;;;;3570933;40;19935;-72
2021/08/09 09:35:17;;;;;;;;;;;;;;;;;;3570675;40;19932;-72
2021/08/09 09:37:43;;;;;;;;;;;;;;;;;;3561201;40;20195;-75
2021/08/09 09:40:09;;;;;;;;;;;;;;;;;;3570705;40;19926;-73
2021/08/09 09:42:35;;;;;;;;;;;;;;;;;;3570972;40;19929;-72
2021/08/09 09:45:01;;;;;;;;;;;;;;;;;;3561472;40;19925;-72
2021/08/09 09:47:27;;;;;;;;;;;;;;;;;;3570821;40;19926;-72
2021/08/09 09:49:53;;;;;;;;;;;;;;;;;;3570125;40;19925;-78
2021/08/09 09:52:19;;;;;;;;;;;;;;;;;;3570499;40;19937;-72
2021/08/09 09:54:45;;;;;;;;;;;;;;;;;;3571088;40;20263;-72
2021/08/09 09:57:11;;;;;;;;;;;;;;;;;;3570689;40;19936;-72
2021/08/09 09:59:37;;;;;;;;;;;;;;;;;;3570544;40;20029;-73
2021/08/09 10:02:03;;;;;;;;;;;;;;;;;;3570435;40;19929;-72
2021/08/09 10:04:29;;;;;;;;;;;;;;;;;;3570452;40;19933;-73
2021/08/09 10:06:55;;;;;;;;;;;;;;;;;;3561195;40;19935;-74
2021/08/09 10:09:21;;;;;;;;;;;;;;;;;;3561367;40;19932;-72
2021/08/09 10:11:47;;;;;;;;;;;;;;;;;;3570420;40;19929;-73
2021/08/09 10:14:13;;;;;;;;;;;;;;;;;;3570845;40;19925;-73
2021/08/09 10:16:39;;;;;;;;;;;;;;;;;;3560935;40;19929;-72
2021/08/09 10:19:04;;;;;;;;;;;;;;;;;;3570869;40;19928;-73
2021/08/09 10:21:30;;;;;;;;;;;;;;;;;;3570438;40;19931;-76
2021/08/09 10:24:05;;;;;;;;;;;;;;;;;;3570421;40;19955;-74
2021/08/09 10:26:31;;;;;;;;;;;;;;;;;;3570604;40;20199;-72
2021/08/09 10:28:57;;;;;;;;;;;;;;;;;;3570557;40;19983;-72
2021/08/09 10:31:23;;;;;;;;;;;;;;;;;;3560949;40;20251;-73
2021/08/09 10:33:49;;;;;;;;;;;;;;;;;;3560971;40;19929;-73
2021/08/09 10:36:20;;;;;;;;;;;;;;;;;;3560790;40;19925;-72
2021/08/09 10:38:46;;;;;;;;;;;;;;;;;;3560882;40;20289;-73
2021/08/09 10:41:12;;;;;;;;;;;;;;;;;;3570317;40;20207;-72
2021/08/09 10:43:40;;;;;;;;;;;;;;;;;;3560938;40;19929;-73
2021/08/09 10:46:06;;;;;;;;;;;;;;;;;;3560924;40;19925;-72
2021/08/09 10:48:32;;;;;;;;;;;;;;;;;;3570383;40;19948;-73
2021/08/09 10:50:58;;;;;;;;;;;;;;;;;;3560946;40;20187;-73
2021/08/09 10:53:24;;;;;;;;;;;;;;;;;;3570105;40;19965;-73
2021/08/09 10:55:50;;;;;;;;;;;;;;;;;;3570097;40;20262;-73
2021/08/09 10:58:16;;;;;;;;;;;;;;;;;;3569956;40;19936;-73
2021/08/09 11:00:42;;;;;;;;;;;;;;;;;;3569358;40;19930;-73
2021/08/09 11:03:10;;;;;;;;;;;;;;;;;;3570625;40;20171;-73
2021/08/09 11:05:35;;;;;;;;;;;;;;;;;;3570143;40;19932;-72
2021/08/09 11:08:01;;;;;;;;;;;;;;;;;;3570088;40;20183;-76
2021/08/09 11:13:12;;;;;;;;;;;;;;;;;;3570069;40;20006;-73
2021/08/09 11:15:48;;;;;;;;;;;;;;;;;;3570453;40;19948;-73
2021/08/09 11:18:14;;;;;;;;;;;;;;;;;;3574743;40;19936;-73
2021/08/09 11:20:39;;;;;;;;;;;;;;;;;;3580382;40;20022;-73
2021/08/09 11:23:17;;;;;;;;;;;;;;;;;;3580093;40;19929;-73
2021/08/09 11:25:44;;;;;;;;;;;;;;;;;;3580237;40;19940;-73
2021/08/09 11:28:10;;;;;;;;;;;;;;;;;;3580322;40;19937;-76
2021/08/09 11:30:41;;;;;;;;;;;;;;;;;;3580189;40;19929;-73
2021/08/09 11:33:08;;;;;;;;;;;;;;;;;;3580385;40;19936;-73
2021/08/09 11:35:34;;;;;;;;;;;;;;;;;;3580014;40;19933;-73
2021/08/09 11:38:01;;;;;;;;;;;;;;;;;;3580480;40;20186;-74
2021/08/09 11:40:27;;;;;;;;;;;;;;;;;;3578490;40;20267;-73
2021/08/09 11:42:53;;;;;;;;;;;;;;;;;;3580471;40;19944;-73
2021/08/09 11:45:19;;;;;;;;;;;;;;;;;;3579074;40;19929;-73
2021/08/09 11:47:45;;;;;;;;;;;;;;;;;;3579894;40;19960;-74
2021/08/09 11:50:11;;;;;;;;;;;;;;;;;;3579176;40;20282;-72
2021/08/09 11:52:37;;;;;;;;;;;;;;;;;;3579924;40;19935;-72
2021/08/09 11:55:03;;;;;;;;;;;;;;;;;;3580093;40;19935;-75
2021/08/09 11:57:29;;;;;;;;;;;;;;;;;;3580356;40;19937;-73
2021/08/09 11:59:55;;;;;;;;;;;;;;;;;;3578849;40;19929;-80
2021/08/09 12:02:21;;;;;;;;;;;;;;;;;;3579893;40;19944;-73
2021/08/09 12:04:47;;;;;;;;;;;;;;;;;;3578721;40;20030;-73
2021/08/09 12:07:13;;;;;;;;;;;;;;;;;;3578642;40;19978;-73
2021/08/09 12:09:39;;;;;;;;;;;;;;;;;;3578619;40;20026;-74
2021/08/09 12:12:05;;;;;;;;;;;;;;;;;;3579949;40;20013;-75
2021/08/09 12:14:32;;;;;;;;;;;;;;;;;;3580283;40;19929;-73
2021/08/09 12:16:57;;;;;;;;;;;;;;;;;;3579914;40;20050;-73
2021/08/09 12:19:23;;;;;;;;;;;;;;;;;;3571411;40;19937;-73
2021/08/09 12:21:49;;;;;;;;;;;;;;;;;;3571439;40;20360;-73
2021/08/09 12:24:16;;;;;;;;;;;;;;;;;;3571181;40;19926;-73
2021/08/09 12:26:42;;;;;;;;;;;;;;;;;;3571141;40;19929;-73
2021/08/09 12:29:07;;;;;;;;;;;;;;;;;;3571065;40;19925;-73
2021/08/09 12:31:33;;;;;;;;;;;;;;;;;;3571361;40;20192;-74
2021/08/09 12:34:00;;;;;;;;;;;;;;;;;;3562149;40;19932;-74
2021/08/09 12:36:26;;;;;;;;;;;;;;;;;;3571081;40;19937;-74
2021/08/09 12:38:51;;;;;;;;;;;;;;;;;;3562115;40;19956;-74
2021/08/09 12:41:17;;;;;;;;;;;;;;;;;;3561877;40;19982;-73
2021/08/09 12:43:43;;;;;;;;;;;;;;;;;;3561819;40;19926;-74
2021/08/09 12:46:09;;;;;;;;;;;;;;;;;;3571222;40;19933;-73
2021/08/09 12:48:35;;;;;;;;;;;;;;;;;;3561827;40;19925;-73
2021/08/09 12:51:01;;;;;;;;;;;;;;;;;;3561783;40;19958;-73
2021/08/09 12:53:27;;;;;;;;;;;;;;;;;;3571494;40;19960;-73
2021/08/09 12:55:53;;;;;;;;;;;;;;;;;;3571363;40;19929;-74
2021/08/09 12:58:20;;;;;;;;;;;;;;;;;;3571653;40;19925;-73
2021/08/09 13:00:46;;;;;;;;;;;;;;;;;;3571380;40;20195;-74
2021/08/09 13:03:11;;;;;;;;;;;;;;;;;;3561964;40;19929;-73
2021/08/09 13:05:37;;;;;;;;;;;;;;;;;;3571041;40;19936;-76
2021/08/09 13:08:03;;;;;;;;;;;;;;;;;;3571114;40;19929;-73
2021/08/09 13:10:29;;;;;;;;;;;;;;;;;;3562196;40;20007;-74
2021/08/09 13:12:55;;;;;;;;;;;;;;;;;;3570988;40;19929;-77
2021/08/09 13:15:25;;;;;;;;;;;19.90;81.00;;;;;;3571286;40;20275;-74
2021/08/09 13:17:51;;;;;;;;;;;;;;;;;;3569775;40;19940;-73
2021/08/09 13:20:17;;;;;;;;;;;;;;;;;;3559461;40;19956;-73
2021/08/09 13:22:43;;;;;;;;;;;;;;;;;;3559391;40;20271;-74
2021/08/09 13:25:09;;;;;;;;;;;;;;;;;;3559033;40;19936;-73
2021/08/09 13:27:35;;;;;;;;;;;;;;;;;;3551243;40;19929;-75
2021/08/09 13:30:02;;;;;;;;;;;;;;;;;;3559761;40;19930;-74
2021/08/09 13:32:28;;;;;;;;;;;;;;;;;;3555907;40;19948;-73
2021/08/09 13:34:54;;;;;;;;;;;;;;;;;;3549683;40;20276;-73
2021/08/09 13:37:20;;;;;;;;;;;;;;;;;;3549588;40;19933;-73
2021/08/09 13:39:48;;;;;;;;;;;;;;;;;;3549557;40;19934;-73
2021/08/09 13:42:14;;;;;;;;;;;;;;;;;;3548046;40;19934;-73
2021/08/09 13:44:40;;;;;;;;;;;;;;;;;;3549624;40;19953;-73
2021/08/09 13:47:05;;;;;;;;;;;;;;;;;;3550220;40;19969;-73
2021/08/09 13:49:31;;;;;;;;;;;;;;;;;;3559179;40;19944;-74
2021/08/09 13:51:57;;;;;;;;;;;;;;;;;;3576321;40;20277;-73
2021/08/09 13:54:24;;;;;;;;;;;31.80;89.80;;;;;;3580782;40;19928;-73
2021/08/09 13:56:50;;;;;;;;;;;29.80;92.00;;;;;;3580495;40;19941;-73
2021/08/09 13:59:16;;;;;;;;;;;29.50;91.70;;;;;;3580949;40;20278;-73
2021/08/09 14:01:41;;;;;;;;;;;29.30;91.60;;;;;;3580774;40;20042;-75
2021/08/09 14:04:07;;;;;;;;;;;29.30;92.60;;;;;;3580487;40;19936;-72
2021/08/09 14:06:35;;;;;;;;;;;;;;;;;;3580506;40;19990;-75
2021/08/09 14:09:01;;;;;;;;;;;;;;;;;;3580352;40;19941;-73
2021/08/09 14:11:27;;;;;;;;;;;;;;;;;;3580678;40;20363;-74
2021/08/09 14:13:53;;;;;;;;;;;;;;;;;;3580504;40;19937;-78
2021/08/09 14:16:19;;;;;;;;;;;;;;;;;;3580511;40;19940;-73
2021/08/09 14:18:44;;;;;;;;;;;;;;;;;;3574597;40;19945;-73
2021/08/09 14:21:10;;;;;;;;;;;;;;;;;;3570432;40;19931;-76
2021/08/09 14:23:36;;;;;;;;;;;;;;;;;;3571052;40;20190;-73
2021/08/09 14:26:03;;;;;;;;;;;29.70;91.20;;;;;;3570793;40;19929;-76
2021/08/09 14:28:29;;;;;;;;;;;32.10;89.50;;;;;;3561203;40;19972;-75
2021/08/09 14:30:55;;;;;;;;;;;32.00;90.20;;;;;;3570594;40;19933;-75
2021/08/09 14:33:21;;;;;;;;;;;32.10;87.40;;;;;;3569513;40;19965;-74
2021/08/09 14:35:48;;;;;;;;;;;32.20;88.00;;;;;;3561130;40;20195;-74
2021/08/09 14:38:13;;;;;;;;;;;32.20;86.90;;;;;;3570879;40;19969;-73
2021/08/09 14:40:39;;;;;;;;;;;31.90;87.60;;;;;;3561142;40;20195;-73
2021/08/09 14:43:06;;;;;;;;;;;32.00;88.30;;;;;;3570246;40;20190;-73
2021/08/09 14:45:33;;;;;;;;;;;31.90;88.60;;;;;;3570134;40;19933;-73
2021/08/09 14:47:58;;;;;;;;;;;;;;;;;;3570198;40;20001;-73
2021/08/09 14:50:24;;;;;;;;;;;32.10;88.20;;;;;;3567073;40;20307;-73
2021/08/09 14:52:50;;;;;;;;;;;32.60;87.10;;;;;;3560211;40;20187;-74
2021/08/09 14:55:16;;;;;;;;;;;32.60;85.80;;;;;;3554228;40;19933;-74
2021/08/09 14:57:42;;;;;;;;;;;;;;;;;;3570564;40;19936;-73
2021/08/09 15:00:09;;;;;;;;;;;32.60;85.40;;;;;;3568103;40;19929;-73
2021/08/09 15:02:37;;;;;;;;;;;33.20;86.40;;;;;;3550930;40;19952;-73
2021/08/09 15:05:03;;;;;;;;;;;33.00;85.40;;;;;;3561661;40;19937;-73
2021/08/09 15:07:28;;;;;;;;;;;33.10;85.50;;;;;;3551053;40;19937;-73
2021/08/09 15:09:54;;;;;;;;;;;33.30;87.40;;;;;;3560303;40;20271;-73
2021/08/09 15:12:20;;;;;;;;;;;33.50;85.80;;;;;;3559169;40;19941;-73
2021/08/09 15:14:45;;;;;;;;;;;33.20;86.20;;;;;;3570253;40;19930;-74
2021/08/09 15:17:13;;;;;;;;;;;33.40;86.00;;;;;;3570525;40;20287;-74
2021/08/09 15:19:39;;;;;;;;;;;33.50;84.70;;;;;;3572089;40;19953;-74
2021/08/09 15:22:05;;;;;;;2.00;1.13;;;33.10;84.50;;;;;;3569804;40;19944;-73
2021/08/09 15:24:31;;;;;;;2.53;1.10;;;32.90;85.20;;;;;;3566743;40;20366;-73
2021/08/09 15:26:57;;;;;;;2.28;1.23;;;32.90;85.70;;;;;;3557744;40;20401;-73
2021/08/09 15:29:24;;;;;;;2.35;1.10;;;32.70;86.50;;;;;;3566244;40;20398;-73
2021/08/09 15:31:50;;;;;;;4.40;1.50;;;32.70;85.00;;;;;;3562498;40;20380;-74
2021/08/09 15:34:18;;;;;;;2.93;0.90;;;32.40;86.30;;;;;;3547858;40;20407;-72
2021/08/09 15:36:44;;;;;;;2.30;1.20;;;31.90;87.20;;;;;;3557084;40;20767;-73
2021/08/09 15:39:10;;;;;;;2.13;1.10;;;32.10;87.00;;;;;;3554203;40;20398;-74
2021/08/09 15:41:36;;;;;;;2.80;1.08;;;32.20;87.00;;;;;;3567059;40;20362;-74
2021/08/09 15:44:02;;;;;;;2.20;1.00;;;32.50;87.00;;;;;;3566990;40;20619;-73
2021/08/09 15:46:28;;;;;;;2.45;1.20;;;32.80;85.70;;;;;;3557830;40;20484;-73
2021/08/09 15:48:54;;;;;;;2.40;1.10;;;32.90;85.00;;;;;;3564765;40;20401;-73
2021/08/09 15:51:21;;;;;;;3.85;1.10;;;32.90;85.00;;;;;;3550736;40;20447;-74
2021/08/09 15:53:54;;;;;;;3.60;1.30;;;;;;;;;;3552757;40;20410;-73
2021/08/09 15:56:20;;;;;;;3.75;1.50;;;;;;;;;;3546950;40;20448;-74
2021/08/09 15:58:46;;;;;;;3.13;1.40;;;;;;;;;;3546951;40;20384;-74
2021/08/09 16:01:12;;;;;;;3.65;1.05;;;;;;;;;;3547017;40;20393;-73
2021/08/09 16:03:41;;;;;;;2.78;1.10;;;;;;;;;;3546936;40;20604;-74
2021/08/09 16:06:08;;;;;;;2.33;1.20;;;;;;;;;;3547065;40;20747;-76
2021/08/09 16:08:37;;;;;;;6.05;1.38;;;32.50;85.20;;;;;;3546981;40;20365;-73
2021/08/09 16:11:03;;;;;;;3.30;1.20;;;;;;;;;;3540015;40;20405;-75
2021/08/09 16:13:29;;;;;;;2.83;1.10;;;30.50;88.60;;;;;;3546857;40;20807;-73